Time;durP1;ratioP1;P1;durP2;ratioP2;P2;SDS_P1;SDS_P2;PMS_P1;PMS_P2;Temp;Humidity;BMP_temperature;BMP_pressure;BME280_temperature;BME280_humidity;BME280_pressure;Samples;Min_cycle;Max_cycle;Signal;HPM_P1;HPM_P2
2023/06/20 00:00:47;;;;;;;7.30;6.70;;;;;;;22.26;65.26;97871.94;4996856;28;20033;-77
2023/06/20 00:03:13;;;;;;;9.00;7.45;;;;;;;21.87;66.14;97872.97;4996550;28;20038;-76
2023/06/20 00:05:38;;;;;;;8.18;7.28;;;;;;;22.09;65.84;97865.69;4979497;28;20033;-77
2023/06/20 00:08:04;;;;;;;7.78;6.97;;;;;;;22.03;65.80;97857.63;4951638;28;20066;-77
2023/06/20 00:10:29;;;;;;;8.65;7.10;;;;;;;22.21;65.41;97868.56;4969220;28;20492;-77
2023/06/20 00:12:54;;;;;;;9.07;7.07;;;;;;;22.26;65.41;97868.38;4973819;28;20038;-76
2023/06/20 00:15:25;;;;;;;7.53;6.80;;;;;;;22.27;65.33;97867.22;4994154;28;20033;-74
2023/06/20 00:18:00;;;;;;;10.93;7.00;;;;;;;22.25;65.35;97875.00;4964764;28;20117;-77
2023/06/20 00:20:29;;;;;;;8.52;7.32;;;;;;;22.50;64.52;97877.63;4967347;28;20444;-76
2023/06/20 00:22:55;;;;;;;8.18;6.55;;;;;;;22.18;65.96;97874.69;4973011;28;20080;-77
2023/06/20 00:25:20;;;;;;;9.85;7.20;;;;;;;21.69;67.46;97867.81;4976626;28;20473;-76
2023/06/20 00:27:46;;;;;;;7.72;6.88;;;;;;;22.01;66.71;97859.88;4980550;28;20031;-76
2023/06/20 00:30:12;;;;;;;8.88;6.35;;;;;;;22.18;64.09;97863.72;4982715;28;20037;-77
2023/06/20 00:32:37;;;;;;;14.68;7.05;;;;;;;22.28;62.83;97860.63;4989360;28;20104;-76
2023/06/20 00:35:03;;;;;;;7.55;6.80;;;;;;;22.28;63.31;97857.88;4985895;28;20499;-75
2023/06/20 00:37:28;;;;;;;8.27;7.07;;;;;;;21.93;64.48;97858.00;4950993;28;20022;-75
2023/06/20 00:39:54;;;;;;;9.27;7.15;;;;;;;21.99;64.08;97862.16;4983523;28;20066;-76
2023/06/20 00:42:20;;;;;;;7.55;6.85;;;;;;;21.88;64.96;97860.91;4979610;28;20029;-76
2023/06/20 00:44:46;;;;;;;7.47;6.78;;;;;;;21.89;64.69;97862.50;4966129;28;20085;-76
2023/06/20 00:47:16;;;;;;;8.48;6.70;;;;;;;21.91;64.46;97860.22;4963318;28;20459;-77
2023/06/20 00:49:42;;;;;;;9.43;7.07;;;;;;;22.07;64.09;97863.28;4982542;28;20088;-78
2023/06/20 00:52:08;;;;;;;8.02;6.93;;;;;;;21.98;64.26;97867.97;4972818;28;20026;-76
2023/06/20 00:54:33;;;;;;;7.88;6.97;;;;;;;22.26;63.28;97865.63;4969621;28;20038;-76
2023/06/20 00:56:59;;;;;;;8.10;7.30;;;;;;;22.16;63.84;97860.50;4963485;28;20018;-77
2023/06/20 00:59:24;;;;;;;7.93;6.78;;;;;;;22.01;64.17;97859.06;4982179;28;20484;-76
2023/06/20 01:01:50;;;;;;;8.52;7.72;;;;;;;21.79;64.70;97851.84;4954080;28;20026;-78
2023/06/20 01:04:15;;;;;;;10.15;8.25;;;;;;;21.84;64.86;97859.91;4934293;28;20039;-77
2023/06/20 01:06:48;;;;;;;8.85;7.95;;;;;;;21.61;66.24;97855.72;4963484;28;20396;-78
2023/06/20 01:09:31;;;;;;;8.80;7.90;;;;;;;21.89;65.66;97867.97;4965931;28;20042;-76
2023/06/20 01:12:08;;;;;;;9.90;8.63;;;;;;;21.81;66.00;97862.47;4982870;28;20081;-77
2023/06/20 01:14:46;;;;;;;8.88;7.53;;;;;;;21.68;66.82;97856.03;4962639;28;20042;-77
2023/06/20 01:17:20;;;;;;;9.13;8.15;;;;;;;21.74;66.82;97865.72;4950564;28;20041;-77
2023/06/20 01:20:11;;;;;;;9.15;8.30;;;;;;;21.58;67.31;97872.84;4960989;28;20084;-77
2023/06/20 01:23:05;;;;;;;8.98;8.07;;;;;;;21.79;66.43;97862.81;4961199;28;20485;-78
2023/06/20 01:25:46;;;;;;;9.20;8.30;;;;;;;21.56;67.51;97875.09;4967501;28;20034;-77
2023/06/20 01:28:23;;;;;;;10.77;8.57;;;;;;;21.77;66.58;97869.75;4971423;28;20027;-79
2023/06/20 01:31:02;;;;;;;9.05;7.95;;;;;;;21.74;65.98;97871.22;4978977;28;20038;-78
2023/06/20 01:33:30;;;;;;;8.98;8.07;;;;;;;21.42;67.52;97873.66;4982556;28;20038;-77
2023/06/20 01:35:57;;;;;;;9.10;8.20;;;;;;;21.29;68.00;97872.66;4960250;28;20084;-79
2023/06/20 01:38:25;;;;;;;9.10;8.27;;;;;;;21.28;68.46;97879.28;4974529;28;20042;-78
2023/06/20 01:40:51;;;;;;;9.75;8.75;;;;;;;21.22;68.72;97886.03;4996271;28;20061;-78
2023/06/20 01:43:19;;;;;;;9.70;7.85;;;;;;;20.96;69.25;97876.94;4990150;28;20488;-77
2023/06/20 01:45:47;;;;;;;7.90;7.15;;;;;;;21.35;67.67;97877.66;4964689;28;20101;-77
2023/06/20 01:48:12;;;;;;;8.93;8.05;;;;;;;21.52;67.36;97862.38;4964367;28;20041;-76
2023/06/20 01:50:38;;;;;;;9.63;8.52;;;;;;;21.44;67.69;97866.72;4963845;28;20022;-78
2023/06/20 01:53:04;;;;;;;9.68;8.60;;;;;;;21.38;68.12;97868.00;4958704;28;20387;-78
2023/06/20 01:55:30;;;;;;;218.35;56.95;;;;;;;21.39;67.88;97853.16;4964353;28;20033;-78
2023/06/20 01:57:57;;;;;;;279.67;26.20;;;;;;;21.35;67.89;97863.16;4980213;28;20030;-77
2023/06/20 02:00:24;;;;;;;9.68;8.77;;;;;;;20.89;68.90;97860.16;4976358;28;20177;-77
2023/06/20 02:02:50;;;;;;;9.43;8.57;;;;;;;21.18;68.11;97857.69;4968200;28;20026;-77
2023/06/20 02:05:17;;;;;;;60.35;20.63;;;;;;;21.31;67.83;97843.00;4960559;28;20022;-77
2023/06/20 02:07:43;;;;;;;8.70;7.90;;;;;;;21.27;68.05;97861.22;4963776;28;20034;-76
2023/06/20 02:10:13;;;;;;;10.55;8.23;;;;;;;20.61;70.11;97860.44;4945760;28;20058;-77
2023/06/20 02:12:39;;;;;;;565.50;57.17;;;;;;;20.38;70.90;97860.81;4995213;28;20026;-78
2023/06/20 02:15:07;;;;;;;10.68;9.77;;;;;;;20.40;70.63;97859.38;4957445;28;20089;-77
2023/06/20 02:17:33;;;;;;;12.88;11.88;;;;;;;20.12;72.33;97865.34;4958459;28;20049;-78
2023/06/20 02:19:58;;;;;;;13.05;12.05;;;;;;;20.23;71.56;97870.28;4969104;28;20030;-78
2023/06/20 02:22:25;;;;;;;13.40;12.30;;;;;;;20.03;72.46;97865.28;4983611;28;20471;-78
2023/06/20 02:24:51;;;;;;;11.73;10.80;;;;;;;20.23;71.31;97875.72;4942079;28;20023;-76
2023/06/20 02:27:18;;;;;;;14.05;12.82;;;;;;;19.78;73.77;97896.81;4960529;28;20044;-76
2023/06/20 02:29:44;;;;;;;14.93;13.75;;;;;;;20.04;72.23;97883.31;4960882;28;20034;-76
2023/06/20 02:32:13;;;;;;;13.80;12.73;;;;;;;20.36;71.47;97895.88;4972259;28;20034;-77
2023/06/20 02:34:41;;;;;;;12.75;11.65;;;;;;;20.58;70.31;97888.41;4988232;28;20038;-78
2023/06/20 02:37:07;;;;;;;12.65;11.55;;;;;;;20.62;70.32;97894.88;4961926;28;20133;-77
2023/06/20 02:39:33;;;;;;;12.38;11.27;;;;;;;20.82;69.64;97898.19;4977969;28;20057;-77
2023/06/20 02:41:59;;;;;;;12.32;11.32;;;;;;;20.69;70.31;97899.91;4973313;28;20126;-77
2023/06/20 02:44:25;;;;;;;12.50;11.50;;;;;;;20.72;70.12;97896.53;4951026;28;20030;-77
2023/06/20 02:47:03;;;;;;;12.13;11.20;;;;;;;20.84;69.84;97901.41;4956243;28;20469;-77
2023/06/20 02:49:39;;;;;;;12.23;11.23;;;;;;;20.79;69.69;97904.28;4961353;28;20030;-77
2023/06/20 02:52:45;;;;;;;11.43;10.35;;;;;;;20.80;69.39;97901.22;4975998;28;20042;-77
2023/06/20 02:55:37;;;;;;;10.02;9.20;;;;;;;20.83;69.46;97905.25;4963436;28;20381;-77
2023/06/20 02:58:08;;;;;;;11.18;10.07;;;;;;;20.91;68.99;97915.44;4963569;28;20053;-77
2023/06/20 03:00:34;;;;;;;93.22;15.15;;;;;;;21.07;68.79;97911.16;4968821;28;20049;-78
2023/06/20 03:03:06;;;;;;;9.82;8.90;;;;;;;21.14;68.41;97908.75;4973417;28;20026;-75
2023/06/20 03:05:35;;;;;;;10.55;9.65;;;;;;;20.98;69.36;97919.28;4972918;28;20053;-76
2023/06/20 03:08:02;;;;;;;13.45;11.98;;;;;;;19.90;72.97;97937.25;4951183;28;20026;-76
2023/06/20 03:10:28;;;;;;;19.30;17.80;;;;;;;19.39;74.89;97947.75;4973553;28;20093;-77
2023/06/20 03:12:53;;;;;;;20.13;18.52;;;;;;;19.79;73.67;97946.81;4961620;28;20022;-77
2023/06/20 03:15:19;;;;;;;17.65;16.30;;;;;;;20.13;72.71;97952.53;4972557;28;20038;-77
2023/06/20 03:17:44;;;;;;;17.77;16.48;;;;;;;19.99;73.17;97951.78;4961374;28;20094;-76
2023/06/20 03:20:10;;;;;;;18.38;17.00;;;;;;;19.68;73.91;97978.22;4939658;28;20489;-77
2023/06/20 03:22:37;;;;;;;25.15;23.65;;;;;;;18.99;76.34;97999.34;4948315;28;20501;-77
2023/06/20 03:25:03;;;;;;;40.05;37.55;;;;;;;18.68;79.71;98062.97;4962822;28;20049;-76
2023/06/20 03:27:28;;;;;;;40.15;37.72;;;;;;;19.14;79.46;98061.81;4945429;28;20230;-76
2023/06/20 03:29:54;;;;;;;45.58;42.85;;;;;;;19.25;80.09;98057.78;4947102;28;20034;-78
2023/06/20 03:32:20;;;;;;;48.80;45.55;;;;;;;19.45;80.50;98061.25;4979493;28;20026;-78
2023/06/20 03:34:45;;;;;;;44.55;41.85;;;;;;;19.57;79.50;98069.72;4972610;28;20030;-79
2023/06/20 03:37:11;;;;;;;43.50;40.53;;;;;;;19.89;78.70;98072.31;4982189;28;20029;-76
2023/06/20 03:39:36;;;;;;;42.40;39.95;;;;;;;19.93;79.37;98062.34;4984656;28;20038;-80
2023/06/20 03:42:02;;;;;;;42.70;39.92;;;;;;;20.01;78.35;98064.38;4948831;28;20485;-76
2023/06/20 03:44:33;;;;;;;46.15;43.15;;;;;;;20.22;78.49;98071.03;4978870;28;20039;-76
2023/06/20 03:50:36;;;;;;;37.22;34.75;;;;;;;20.56;76.83;98060.31;4993852;28;20520;-79
2023/06/20 03:53:03;;;;;;;36.08;33.88;;;;;;;20.65;77.27;98063.91;4994410;28;20092;-78
2023/06/20 03:55:29;;;;;;;34.90;32.50;;;;;;;20.36;77.10;98066.31;5021140;28;20034;-79
2023/06/20 03:57:55;;;;;;;36.92;34.72;;;;;;;20.47;77.26;98073.13;4996586;28;20018;-77
2023/06/20 04:00:21;;;;;;;34.65;32.30;;;;;;;20.32;76.62;98076.25;5022706;28;20038;-76
2023/06/20 04:02:46;;;;;;;34.03;31.95;;;;;;;20.27;76.50;98068.16;5009688;28;20028;-77
2023/06/20 04:05:13;;;;;;;33.03;30.83;;;;;;;20.83;75.45;98069.50;5015109;28;20034;-77
2023/06/20 04:07:42;;;;;;;31.65;29.42;;;;;;;20.87;74.94;98067.75;5015453;28;20030;-77
2023/06/20 04:10:12;;;;;;;35.88;33.58;;;;;;;20.82;76.17;98073.38;5016849;28;20038;-76
2023/06/20 04:12:38;;;;;;;39.03;36.72;;;;;;;20.90;77.50;98075.34;5001812;28;20085;-77
2023/06/20 04:15:05;;;;;;;37.20;34.95;;;;;;;20.77;77.07;98078.97;5014392;28;20056;-76
2023/06/20 04:17:31;;;;;;;35.67;33.45;;;;;;;20.16;77.89;98091.38;4997998;28;20121;-79
2023/06/20 04:19:56;;;;;;;43.33;40.60;;;;;;;20.15;78.52;98089.75;4990777;28;20026;-79
2023/06/20 04:22:26;;;;;;;42.95;40.45;;;;;;;20.38;78.38;98075.00;5009837;28;20097;-77
2023/06/20 04:24:54;;;;;;;51.92;48.75;;;;;;;20.88;78.18;98069.38;5005215;28;20029;-77
2023/06/20 04:27:21;;;;;;;51.00;48.10;;;;;;;20.75;79.28;98053.84;5003057;28;20026;-78
2023/06/20 04:29:52;;;;;;;50.38;47.22;;;;;;;20.74;79.44;98065.91;5013154;28;20447;-77
2023/06/20 04:32:18;;;;;;;47.83;45.20;;;;;;;20.60;79.50;98061.34;4996981;28;20065;-77
2023/06/20 04:34:44;;;;;;;48.38;45.45;;;;;;;20.58;79.76;98062.75;4986903;28;20026;-76
2023/06/20 04:37:09;;;;;;;54.15;50.85;;;;;;;20.26;81.78;98068.47;4996304;28;20034;-77
2023/06/20 04:39:35;;;;;;;49.03;46.28;;;;;;;20.47;80.77;98051.25;5012996;28;20396;-76
2023/06/20 04:42:01;;;;;;;52.47;49.30;;;;;;;20.46;80.91;98038.72;4996563;28;20041;-77
2023/06/20 04:44:26;;;;;;;55.08;51.90;;;;;;;20.60;81.41;98031.22;4995721;28;20399;-76
2023/06/20 04:46:55;;;;;;;51.30;48.42;;;;;;;20.61;80.13;98024.63;4996151;28;20037;-77
2023/06/20 04:49:21;;;;;;;50.42;47.47;;;;;;;20.46;80.15;98030.50;4992810;28;20037;-76
2023/06/20 04:51:47;;;;;;;54.33;51.13;;;;;;;20.46;80.68;98029.69;5010216;28;20530;-76
2023/06/20 04:54:12;;;;;;;57.60;54.35;;;;;;;20.37;82.61;98015.97;4995679;28;20025;-77
2023/06/20 04:56:40;;;;;;;55.88;52.47;;;;;;;20.00;81.52;98019.81;5012707;28;20081;-77
2023/06/20 04:59:07;;;;;;;57.35;54.08;;;;;;;19.90;82.34;98025.53;4997953;28;20029;-77
2023/06/20 05:01:33;;;;;;;59.75;56.15;;;;;;;19.91;82.78;98027.13;4995652;28;20026;-77
2023/06/20 05:04:03;;;;;;;60.33;56.88;;;;;;;20.08;83.29;98031.94;4995537;28;20030;-77
2023/06/20 05:06:29;;;;;;;64.65;60.90;;;;;;;20.33;82.34;98022.34;5011664;28;20038;-77
2023/06/20 05:08:55;;;;;;;60.22;56.95;;;;;;;20.44;82.42;98019.03;5011987;28;20072;-77
2023/06/20 05:11:20;;;;;;;60.80;57.33;;;;;;;20.48;81.05;98031.00;4995800;28;20065;-78
2023/06/20 05:13:45;;;;;;;59.83;56.42;;;;;;;20.60;80.96;98012.06;5014434;28;20539;-77
2023/06/20 05:16:11;;;;;;;58.08;54.95;;;;;;;20.76;81.33;98019.88;4996688;28;20551;-78
2023/06/20 05:18:36;;;;;;;59.85;56.50;;;;;;;20.59;81.79;98015.91;5014348;28;20032;-78
2023/06/20 05:21:02;;;;;;;60.58;57.08;;;;;;;20.26;82.56;98011.84;4999530;28;20103;-77
2023/06/20 05:23:27;;;;;;;60.00;56.60;;;;;;;20.52;81.71;98010.09;4996405;28;20034;-77
2023/06/20 05:25:53;;;;;;;60.53;57.00;;;;;;;20.70;81.72;98010.19;4979696;28;20042;-77
2023/06/20 05:28:19;;;;;;;57.83;54.38;;;;;;;20.88;81.67;97990.78;5071160;23;20034;-77
2023/06/20 05:30:49;;;;;;;59.67;56.28;;;;;;;20.73;82.17;97985.72;4980713;28;20113;-76
2023/06/20 05:33:24;;;;;;;51.17;48.13;;;;;;;20.94;79.83;97972.28;4982305;28;20042;-76
2023/06/20 05:36:20;;;;;;;54.38;51.22;;;;;;;20.96;80.05;97964.53;4964300;28;20049;-77
2023/06/20 05:39:03;;;;;;;48.90;46.00;;;;;;;20.90;79.98;97968.56;4953938;29;20489;-77
2023/06/20 05:41:45;;;;;;;48.33;45.47;;;;;;;21.00;81.39;97981.97;4967672;28;20027;-77
2023/06/20 05:44:36;;;;;;;57.03;53.85;;;;;;;20.39;82.49;97978.16;4963727;28;20039;-76
2023/06/20 05:47:05;;;;;;;60.25;56.88;;;;;;;20.44;82.93;97980.72;4972040;28;20563;-76
2023/06/20 05:49:36;;;;;;;59.72;56.33;;;;;;;20.68;82.59;97970.25;4962535;28;20528;-76
2023/06/20 05:52:11;;;;;;;57.10;53.90;;;;;;;20.64;82.45;97963.78;4957801;28;20030;-76
2023/06/20 05:54:37;;;;;;;54.65;51.55;;;;;;;21.05;81.04;97968.19;4973305;28;20044;-76
2023/06/20 05:57:05;;;;;;;52.53;49.30;;;;;;;21.39;80.00;97995.66;4957590;28;20019;-78
2023/06/20 05:59:31;;;;;;;50.67;47.78;;;;;;;21.67;79.96;97991.50;4973653;28;20030;-76
2023/06/20 06:01:56;;;;;;;48.72;45.78;;;;;;;21.93;78.48;97997.84;4957266;28;20078;-77
2023/06/20 06:04:22;;;;;;;36.65;34.55;;;;;;;22.18;77.54;97992.66;4956068;28;20035;-77
2023/06/20 06:06:47;;;;;;;37.20;34.90;;;;;;;22.66;76.80;97996.00;4966467;28;20027;-77
2023/06/20 06:09:14;;;;;;;25.48;23.73;;;;;;;22.06;75.54;97998.78;4953628;28;20412;-76
2023/06/20 06:11:40;;;;;;;23.45;22.05;;;;;;;22.15;75.15;98012.53;4958151;28;20572;-78
2023/06/20 06:14:05;;;;;;;26.60;24.90;;;;;;;22.22;75.73;98012.84;4972960;28;20109;-76
2023/06/20 06:16:31;;;;;;;24.52;22.83;;;;;;;22.14;75.11;98010.91;4972645;28;20038;-77
2023/06/20 06:18:56;;;;;;;29.13;27.42;;;;;;;22.23;76.04;98019.94;4973984;28;20053;-77
2023/06/20 06:21:21;;;;;;;28.58;26.73;;;;;;;21.99;76.61;98012.19;4971840;28;20093;-78
2023/06/20 06:23:47;;;;;;;33.40;31.40;;;;;;;22.34;76.39;98015.72;4955410;28;20042;-77
2023/06/20 06:26:13;;;;;;;23.95;22.27;;;;;;;22.81;73.44;98020.16;4972605;28;20034;-77
2023/06/20 06:28:38;;;;;;;19.02;17.67;;;;;;;23.23;71.15;98021.13;4956301;28;20485;-77
2023/06/20 06:31:09;;;;;;;19.38;17.98;;;;;;;23.08;72.07;98019.75;4974310;28;20099;-77
2023/06/20 06:33:34;;;;;;;14.32;13.20;;;;;;;22.87;70.02;98024.34;4955861;28;20130;-77
2023/06/20 06:36:00;;;;;;;15.48;14.20;;;;;;;23.58;69.47;98021.78;4959043;28;20445;-77
2023/06/20 06:38:25;;;;;;;11.95;10.95;;;;;;;23.53;68.36;98016.47;4977883;28;20042;-78
2023/06/20 06:40:54;;;;;;;11.32;10.32;;;;;;;23.55;68.05;98022.47;4969736;28;20031;-77
2023/06/20 06:43:20;;;;;;;12.93;11.85;;;;;;;23.67;67.69;98030.78;4980413;28;20043;-77
2023/06/20 06:45:48;;;;;;;12.15;11.18;;;;;;;23.32;69.70;98030.94;4944614;28;20485;-77
2023/06/20 06:48:13;;;;;;;12.35;11.38;;;;;;;23.69;69.10;98034.00;4975573;28;20042;-77
2023/06/20 06:50:39;;;;;;;11.88;10.80;;;;;;;23.56;67.85;98032.31;4975642;28;20042;-77
2023/06/20 06:53:04;;;;;;;12.75;11.55;;;;;;;23.32;68.82;98028.19;4975194;28;20512;-77
2023/06/20 06:55:29;;;;;;;11.82;10.82;;;;;;;23.46;68.56;98035.44;4951886;29;20081;-77
2023/06/20 06:57:55;;;;;;;11.55;10.55;;;;;;;23.36;68.82;98037.41;4954132;28;20039;-77
2023/06/20 07:00:21;;;;;;;13.80;12.70;;;;;;;23.10;71.00;98039.47;4951939;29;20027;-77
2023/06/20 07:02:46;;;;;;;14.23;13.13;;;;;;;23.36;69.68;98042.91;4954645;28;20033;-77
2023/06/20 07:05:12;;;;;;;14.95;13.65;;;;;;;23.52;69.60;98047.88;4959531;28;20362;-77
2023/06/20 07:07:38;;;;;;;13.98;12.75;;;;;;;23.44;69.49;98048.69;4974844;28;20050;-77
2023/06/20 07:10:04;;;;;;;14.25;13.02;;;;;;;23.56;69.49;98040.56;4968653;28;20050;-77
2023/06/20 07:12:29;;;;;;;11.57;10.55;;;;;;;24.00;66.84;98039.94;4970201;28;20500;-77
2023/06/20 07:14:58;;;;;;;11.30;10.30;;;;;;;24.42;65.46;98047.06;4967584;28;20031;-77
2023/06/20 07:17:24;;;;;;;10.75;9.70;;;;;;;24.52;64.59;98043.91;4970349;28;20418;-77
2023/06/20 07:19:49;;;;;;;10.80;9.70;;;;;;;24.46;64.54;98039.72;4976381;28;20035;-77
2023/06/20 07:22:15;;;;;;;11.27;10.27;;;;;;;24.42;65.70;98041.56;4963086;28;20424;-77
2023/06/20 07:24:40;;;;;;;11.68;10.57;;;;;;;23.78;66.40;98049.31;4966122;28;20082;-77
2023/06/20 07:27:06;;;;;;;11.40;10.25;;;;;;;24.40;65.49;98040.28;4969293;28;20035;-77
2023/06/20 07:29:31;;;;;;;10.88;9.80;;;;;;;24.94;63.98;98025.34;4946975;28;20023;-77
2023/06/20 07:31:56;;;;;;;10.85;9.73;;;;;;;24.85;65.06;98026.56;4961712;28;20035;-77
2023/06/20 07:34:22;;;;;;;10.77;9.80;;;;;;;24.91;64.49;98025.19;4950495;29;20038;-77
2023/06/20 07:36:47;;;;;;;10.27;9.38;;;;;;;24.90;63.49;98029.13;4939515;28;20549;-77
2023/06/20 07:39:13;;;;;;;10.95;9.93;;;;;;;24.55;65.23;98029.44;4965159;28;20028;-77
2023/06/20 07:41:38;;;;;;;10.00;9.07;;;;;;;25.14;64.98;98029.13;4951984;28;20058;-78
2023/06/20 07:44:04;;;;;;;9.70;8.80;;;;;;;24.78;62.55;98024.38;4938335;29;20035;-77
2023/06/20 07:46:30;;;;;;;16.05;8.45;;;;;;;24.68;62.39;98028.34;4966461;28;20046;-78
2023/06/20 07:48:56;;;;;;;10.45;9.45;;;;;;;25.00;62.97;98028.66;4962718;28;20030;-78
2023/06/20 07:51:21;;;;;;;31.25;9.93;;;;;;;25.08;62.01;98019.50;4945410;28;20054;-78
2023/06/20 07:53:46;;;;;;;10.93;9.13;;;;;;;25.33;62.94;98032.13;4973593;28;20031;-78
2023/06/20 07:56:12;;;;;;;8.90;7.95;;;;;;;25.43;60.20;98020.66;4961222;28;20051;-77
2023/06/20 07:58:39;;;;;;;7.40;6.80;;;;;;;25.11;58.29;98029.84;4968008;28;20031;-78
2023/06/20 08:01:06;;;;;;;10.13;8.80;;;;;;;25.45;60.37;98021.13;4968671;28;20046;-77
2023/06/20 08:03:31;;;;;;;8.77;7.97;;;;;;;25.89;58.06;98016.59;4974729;28;20030;-77
2023/06/20 08:05:57;;;;;;;10.32;8.18;;;;;;;26.24;57.71;98017.66;4960941;28;20077;-77
2023/06/20 08:08:22;;;;;;;8.63;7.82;;;;;;;26.19;56.54;98014.34;4967387;28;20167;-76
2023/06/20 08:10:48;;;;;;;9.38;7.95;;;;;;;25.29;59.00;98025.72;4955564;28;20034;-77
2023/06/20 08:13:13;;;;;;;8.10;7.40;;;;;;;25.26;60.16;98020.88;4965911;28;20031;-77
2023/06/20 08:15:39;;;;;;;8.82;8.02;;;;;;;25.58;59.46;98014.44;4967630;28;20030;-77
2023/06/20 08:18:04;;;;;;;9.40;8.20;;;;;;;26.06;58.11;98014.38;4957588;28;20023;-77
2023/06/20 08:20:30;;;;;;;9.60;8.60;;;;;;;25.40;59.32;98007.53;4945840;28;20129;-77
2023/06/20 08:22:55;;;;;;;9.80;8.90;;;;;;;26.00;58.11;98007.47;4973090;28;20113;-77
2023/06/20 08:25:21;;;;;;;8.40;7.63;;;;;;;26.24;57.50;98011.34;4961888;28;20075;-76
2023/06/20 08:27:46;;;;;;;7.45;6.75;;;;;;;26.58;55.08;98010.75;4973158;28;20046;-77
2023/06/20 08:30:12;;;;;;;6.93;6.07;;;;;;;26.62;54.73;98011.63;4957322;28;20038;-77
2023/06/20 08:32:41;;;;;;;7.10;6.40;;;;;;;25.71;55.25;98013.31;4957252;28;20037;-77
2023/06/20 08:35:09;;;;;;;6.97;6.35;;;;;;;25.93;54.83;98011.97;4972781;28;20093;-77
2023/06/20 08:37:36;;;;;;;8.13;6.13;;;;;;;26.47;54.08;98015.97;4974590;28;20022;-77
2023/06/20 08:40:03;;;;;;;5.93;5.25;;;;;;;26.42;52.34;98013.44;4944695;28;20694;-76
2023/06/20 08:42:30;;;;;;;7.07;6.40;;;;;;;25.95;53.70;98004.19;4957410;28;20122;-76
2023/06/20 08:44:56;;;;;;;7.50;6.07;;;;;;;26.85;53.03;98014.63;4972586;28;20046;-76
2023/06/20 08:47:22;;;;;;;9.05;6.75;;;;;;;26.87;52.69;98013.13;4949160;29;20038;-76
2023/06/20 08:49:47;;;;;;;7.88;6.65;;;;;;;27.28;50.91;98014.59;4968199;28;20039;-76
2023/06/20 08:52:14;;;;;;;15.07;7.70;;;;;;;27.25;51.67;98012.53;4974264;28;20475;-76
2023/06/20 08:54:41;;;;;;;17.67;7.65;;;;;;;27.34;51.50;98010.38;4959480;28;20066;-76
2023/06/20 08:57:07;;;;;;;202.95;19.25;;;;;;;27.29;51.99;98002.34;4993922;28;20054;-77
2023/06/20 08:59:36;;;;;;;7.30;6.60;;;;;;;27.69;51.45;98007.66;4954801;28;20634;-76
2023/06/20 09:02:05;;;;;;;12.15;7.18;;;;;;;27.85;50.08;98011.19;4962169;28;20023;-78
2023/06/20 09:04:30;;;;;;;8.57;7.28;;;;;;;27.44;51.19;98009.88;4959480;28;20034;-77
2023/06/20 09:06:56;;;;;;;7.38;6.68;;;;;;;27.62;51.09;98013.84;4946569;29;20062;-77
2023/06/20 09:09:21;;;;;;;133.82;26.58;;;;;;;27.72;49.92;98010.53;4969446;28;20038;-78
2023/06/20 09:11:56;;;;;;;8.32;7.53;;;;;;;27.62;50.29;98010.28;4972717;28;20022;-78
2023/06/20 09:14:29;;;;;;;8.55;7.65;;;;;;;26.88;52.31;98013.94;4943558;28;20035;-77
2023/06/20 09:16:55;;;;;;;8.32;7.50;;;;;;;26.83;52.57;98011.44;4972619;28;20035;-77
2023/06/20 09:19:21;;;;;;;11.05;7.70;;;;;;;27.55;51.52;98012.88;4959734;28;20029;-78
2023/06/20 09:21:46;;;;;;;8.88;8.07;;;;;;;27.47;51.35;98019.41;4945715;29;20130;-77
2023/06/20 09:24:16;;;;;;;8.40;7.60;;;;;;;27.41;50.72;97999.50;4949314;29;20134;-78
2023/06/20 09:26:41;;;;;;;8.50;7.70;;;;;;;27.34;52.12;97999.31;4965523;28;20078;-78
2023/06/20 09:29:12;;;;;;;9.02;7.95;;;;;;;27.98;49.61;98012.69;5041180;23;20076;-72
2023/06/20 09:31:48;;;;;;;8.80;7.88;;;;;;;28.13;50.74;98011.03;5011081;28;20122;-73
2023/06/20 09:34:16;;;;;;;9.10;7.65;;;;;;;28.14;49.83;98010.69;5006730;28;20038;-73
2023/06/20 09:36:42;;;;;;;8.32;7.43;;;;;;;28.45;49.13;98010.53;5030911;28;20017;-73
2023/06/20 09:39:13;;;;;;;9.05;8.20;;;;;;;27.06;50.76;98012.44;5026677;28;20042;-73
2023/06/20 09:41:51;;;;;;;7.97;7.18;;;;;;;28.18;49.18;98003.25;4991355;28;20457;-72
2023/06/20 09:44:17;;;;;;;7.68;6.97;;;;;;;28.70;47.48;97998.00;4981742;28;20035;-73
2023/06/20 09:46:42;;;;;;;7.15;6.55;;;;;;;28.81;47.50;97989.06;5000617;28;20415;-73
2023/06/20 09:49:13;;;;;;;8.82;7.10;;;;;;;28.74;48.38;97992.50;5000069;28;20034;-74
2023/06/20 09:51:48;;;;;;;7.78;7.00;;;;;;;28.74;46.54;97996.09;4994448;28;20408;-73
2023/06/20 09:54:28;;;;;;;8.55;6.85;;;;;;;27.93;47.67;98004.66;4990810;28;20041;-74
2023/06/20 09:56:57;;;;;;;6.80;6.18;;;;;;;28.90;45.83;97975.75;5004422;28;20045;-73
2023/06/20 09:59:26;;;;;;;6.65;5.90;;;;;;;29.24;44.83;97974.81;5020656;28;20052;-73
2023/06/20 10:01:53;;;;;;;6.57;5.82;;;;;;;29.04;46.26;97976.00;4991162;28;20034;-73
2023/06/20 10:04:20;;;;;;;7.18;6.07;;;;;;;28.99;45.00;97976.31;4977276;28;20039;-74
2023/06/20 10:06:46;;;;;;;7.22;6.53;;;;;;;28.64;46.13;97977.28;4983775;28;20034;-73
2023/06/20 10:09:12;;;;;;;8.27;6.20;;;;;;;28.74;45.00;97976.69;4997664;28;20056;-73
2023/06/20 10:11:38;;;;;;;7.20;6.50;;;;;;;28.87;45.97;97982.06;4992124;28;20033;-73
2023/06/20 10:14:04;;;;;;;8.23;7.43;;;;;;;28.44;45.46;97981.22;4990226;28;20038;-73
2023/06/20 10:16:30;;;;;;;8.45;7.10;;;;;;;28.51;45.40;97980.56;4990851;28;20140;-73
2023/06/20 10:18:55;;;;;;;6.93;6.15;;;;;;;28.65;45.58;97969.78;4990691;28;20464;-73
2023/06/20 10:21:52;;;;;;;7.40;6.38;;;;;;;29.41;44.40;97974.25;4991983;28;20062;-73
2023/06/20 10:24:17;;;;;;;280.45;21.27;;;;;;;29.46;44.28;97960.06;5019137;28;20065;-72
2023/06/20 10:26:44;;;;;;;7.95;7.10;;;;;;;29.28;42.65;97964.56;4996291;28;20071;-73
2023/06/20 10:29:09;;;;;;;7.85;6.28;;;;;;;28.17;44.50;97970.38;5001709;28;20488;-73
2023/06/20 10:31:54;;;;;;;7.10;6.30;;;;;;;29.02;43.71;97961.72;4998934;28;20076;-73
2023/06/20 10:34:38;;;;;;;8.48;7.57;;;;;;;29.36;45.45;97966.25;4986792;28;20034;-73
2023/06/20 10:37:25;;;;;;;7.13;6.43;;;;;;;30.19;43.27;97953.16;4970466;28;20126;-73
2023/06/20 10:39:52;;;;;;;98.72;12.38;;;;;;;30.46;40.90;97947.16;4985276;28;20129;-73
2023/06/20 10:42:50;;;;;;;7.80;6.32;;;;;;;30.65;41.28;97940.59;4992595;28;20062;-73
2023/06/20 10:45:26;;;;;;;72.50;19.40;;;;;;;29.24;42.53;97947.06;4975829;28;20133;-73
2023/06/20 10:47:56;;;;;;;7.28;6.50;;;;;;;28.91;42.52;97944.91;4995610;28;20034;-73
2023/06/20 10:50:22;;;;;;;7.03;6.43;;;;;;;29.35;41.40;97936.91;5006569;28;20045;-73
2023/06/20 10:52:48;;;;;;;7.32;6.57;;;;;;;30.26;39.79;97936.56;4990559;28;20022;-73
2023/06/20 10:55:21;;;;;;;7.22;6.53;;;;;;;30.13;39.30;97938.78;4983357;28;20058;-73
2023/06/20 10:57:47;;;;;;;7.22;6.53;;;;;;;29.16;42.68;97934.19;4985679;28;20515;-73
2023/06/20 11:00:15;;;;;;;8.60;6.60;;;;;;;28.87;43.38;97932.16;4990311;28;20503;-73
2023/06/20 11:02:41;;;;;;;7.47;6.60;;;;;;;29.38;41.73;97936.19;4990150;28;20376;-73
2023/06/20 11:05:09;;;;;;;9.00;6.38;;;;;;;28.31;43.80;97938.22;5005952;28;20022;-73
2023/06/20 11:07:35;;;;;;;7.20;6.35;;;;;;;29.13;43.19;97921.06;4990100;28;20035;-73
2023/06/20 11:10:12;;;;;;;7.90;7.13;;;;;;;29.49;41.88;97931.56;4990245;28;20034;-74
2023/06/20 11:12:41;;;;;;;7.55;6.75;;;;;;;29.48;41.59;97924.41;4990164;28;20104;-73
2023/06/20 11:15:26;;;;;;;8.00;7.00;;;;;;;28.97;42.21;97934.28;5005533;28;20053;-73
2023/06/20 11:17:53;;;;;;;7.15;6.45;;;;;;;28.94;41.63;97948.91;4990045;28;20169;-73
2023/06/20 11:20:20;;;;;;;8.07;7.05;;;;;;;29.27;41.14;97930.44;4990707;28;20018;-73
2023/06/20 11:22:47;;;;;;;7.93;7.10;;;;;;;29.60;40.09;97931.72;4993815;28;20407;-73
2023/06/20 11:25:23;;;;;;;10.00;6.97;;;;;;;30.14;41.35;97920.13;5005699;28;20353;-73
2023/06/20 11:27:49;;;;;;;8.27;7.47;;;;;;;31.09;38.96;97921.94;4981163;28;20042;-73
2023/06/20 11:30:14;;;;;;;9.32;6.72;;;;;;;30.78;38.74;97914.09;4993508;28;20037;-73
2023/06/20 11:32:40;;;;;;;8.45;6.97;;;;;;;29.64;41.73;97933.34;4994980;28;20121;-73